createdAt,value
2023-01-15T00:00:23.578Z,979.94
2023-01-15T00:01:23.628Z,979.99
2023-01-15T00:02:23.616Z,979.93
2023-01-15T00:03:23.569Z,979.92
2023-01-15T00:04:23.544Z,979.91
2023-01-15T00:05:23.510Z,979.96
2023-01-15T00:06:23.499Z,979.98
2023-01-15T00:07:23.496Z,980.05
2023-01-15T00:08:23.473Z,980.05
2023-01-15T00:09:23.460Z,980.09
2023-01-15T00:10:23.450Z,980.11
2023-01-15T00:11:23.434Z,980.09
2023-01-15T00:12:23.427Z,980.12
2023-01-15T00:13:23.411Z,980.12
2023-01-15T00:14:23.398Z,980.17
2023-01-15T00:15:23.384Z,980.11
2023-01-15T00:16:23.372Z,980.12
2023-01-15T00:17:23.358Z,980.08
2023-01-15T00:18:23.353Z,980.11
2023-01-15T00:19:23.334Z,980.19
2023-01-15T00:20:23.322Z,980.16
2023-01-15T00:21:23.307Z,980.23
2023-01-15T00:22:23.297Z,980.18
2023-01-15T00:23:23.282Z,980.14
2023-01-15T00:24:23.272Z,980.18
2023-01-15T00:25:23.259Z,980.16
2023-01-15T00:26:23.247Z,980.19
2023-01-15T00:27:23.237Z,980.23
2023-01-15T00:28:23.227Z,980.25
2023-01-15T00:29:23.209Z,980.22
2023-01-15T00:30:23.197Z,980.23
2023-01-15T00:31:23.211Z,980.24
2023-01-15T00:32:23.175Z,980.19
2023-01-15T00:33:23.156Z,980.20
2023-01-15T00:34:23.143Z,980.24
2023-01-15T00:35:23.129Z,980.21
2023-01-15T00:36:23.118Z,980.22
2023-01-15T00:37:23.106Z,980.32
2023-01-15T00:38:23.096Z,980.27
2023-01-15T00:39:23.077Z,980.20
2023-01-15T00:40:23.072Z,980.15
2023-01-15T00:41:23.057Z,980.21
2023-01-15T00:42:23.041Z,980.18
2023-01-15T00:43:23.032Z,980.16
2023-01-15T00:44:23.017Z,980.18
2023-01-15T00:45:23.039Z,980.23
2023-01-15T00:46:23.003Z,980.32
2023-01-15T00:47:22.975Z,980.40
2023-01-15T00:48:22.966Z,980.37
2023-01-15T00:49:22.957Z,980.38
2023-01-15T00:50:22.944Z,980.40
2023-01-15T00:51:22.928Z,980.44
2023-01-15T00:52:22.926Z,980.39
2023-01-15T00:53:22.911Z,980.39
2023-01-15T00:54:22.893Z,980.46
2023-01-15T00:55:22.876Z,980.49
2023-01-15T00:56:22.866Z,980.44
2023-01-15T00:57:22.854Z,980.40
2023-01-15T00:58:22.842Z,980.48
2023-01-15T00:59:22.833Z,980.48
2023-01-15T01:00:22.817Z,980.51
2023-01-15T01:01:22.922Z,980.49
2023-01-15T01:02:22.894Z,980.54
2023-01-15T01:03:22.777Z,980.56
2023-01-15T01:04:22.767Z,980.55
2023-01-15T01:05:22.752Z,980.62
2023-01-15T01:06:22.746Z,980.58
2023-01-15T01:07:22.728Z,980.60
2023-01-15T01:08:22.719Z,980.44
2023-01-15T01:09:22.706Z,980.57
2023-01-15T01:10:22.690Z,980.64
2023-01-15T01:11:22.676Z,980.68
2023-01-15T01:12:22.664Z,980.64
2023-01-15T01:13:22.655Z,980.72
2023-01-15T01:14:22.644Z,980.86
2023-01-15T01:15:22.625Z,980.84
2023-01-15T01:16:22.634Z,980.95
2023-01-15T01:17:22.603Z,980.91
2023-01-15T01:18:22.586Z,980.93
2023-01-15T01:19:22.579Z,980.91
2023-01-15T01:20:22.560Z,980.88
2023-01-15T01:21:22.551Z,980.93
2023-01-15T01:22:22.536Z,980.99
2023-01-15T01:23:22.523Z,980.91
2023-01-15T01:24:22.530Z,980.91
2023-01-15T01:25:22.495Z,980.89
2023-01-15T01:26:22.498Z,981.04
2023-01-15T01:27:22.470Z,981.03
2023-01-15T01:28:22.458Z,981.11
2023-01-15T01:29:22.449Z,981.07
2023-01-15T01:30:22.430Z,981.11
2023-01-15T01:31:22.492Z,981.13
2023-01-15T01:32:22.407Z,981.16
2023-01-15T01:33:22.399Z,981.22
2023-01-15T01:34:22.384Z,981.22
2023-01-15T01:35:22.369Z,981.28
2023-01-15T01:36:22.356Z,981.34
2023-01-15T01:37:22.341Z,981.27
2023-01-15T01:38:22.328Z,981.43
2023-01-15T01:39:22.321Z,981.33
2023-01-15T01:40:22.303Z,981.44
2023-01-15T01:41:22.310Z,981.44
2023-01-15T01:42:22.281Z,981.41
2023-01-15T01:43:22.266Z,981.44
2023-01-15T01:44:22.252Z,981.44
2023-01-15T01:45:22.319Z,981.52
2023-01-15T01:46:22.225Z,981.50
2023-01-15T01:47:22.218Z,981.46
2023-01-15T01:48:22.198Z,981.52
2023-01-15T01:49:22.197Z,981.50
2023-01-15T01:50:22.183Z,981.55
2023-01-15T01:51:22.167Z,981.58
2023-01-15T01:52:22.174Z,981.64
2023-01-15T01:53:22.148Z,981.71
2023-01-15T01:54:22.127Z,981.67
2023-01-15T01:55:22.130Z,981.64
2023-01-15T01:56:22.097Z,981.67
2023-01-15T01:57:22.085Z,981.72
2023-01-15T01:58:22.070Z,981.68
2023-01-15T01:59:22.068Z,981.79
2023-01-15T02:00:22.053Z,981.72
2023-01-15T02:01:22.161Z,981.77
2023-01-15T02:02:22.115Z,981.78
2023-01-15T02:03:22.009Z,981.89
2023-01-15T02:04:21.994Z,981.87
2023-01-15T02:05:21.983Z,981.89
2023-01-15T02:06:21.965Z,981.86
2023-01-15T02:07:21.954Z,981.88
2023-01-15T02:08:21.940Z,981.92
2023-01-15T02:09:21.930Z,981.97
2023-01-15T02:10:21.914Z,981.90
2023-01-15T02:11:21.907Z,982.02
2023-01-15T02:12:21.890Z,981.97
2023-01-15T02:13:21.877Z,981.90
2023-01-15T02:14:21.870Z,982.01
2023-01-15T02:15:21.851Z,981.95
2023-01-15T02:16:21.918Z,981.98
2023-01-15T02:17:21.824Z,982.03
2023-01-15T02:18:21.812Z,981.99
2023-01-15T02:19:21.799Z,981.95
2023-01-15T02:20:21.788Z,981.97
2023-01-15T02:21:21.774Z,981.93
2023-01-15T02:22:21.760Z,981.92
2023-01-15T02:23:21.753Z,981.90
2023-01-15T02:24:21.736Z,981.88
2023-01-15T02:25:21.720Z,981.86
2023-01-15T02:26:21.708Z,981.92
2023-01-15T02:27:21.697Z,981.98
2023-01-15T02:28:21.686Z,982.02
2023-01-15T02:29:21.672Z,981.96
2023-01-15T02:30:21.657Z,981.96
2023-01-15T02:31:21.684Z,981.96
2023-01-15T02:32:21.638Z,981.91
2023-01-15T02:33:21.623Z,981.91
2023-01-15T02:34:21.609Z,981.93
2023-01-15T02:35:21.594Z,981.93
2023-01-15T02:36:21.581Z,981.93
2023-01-15T02:37:21.583Z,981.88
2023-01-15T02:38:21.555Z,981.96
2023-01-15T02:39:21.550Z,981.92
2023-01-15T02:40:21.531Z,981.99
2023-01-15T02:41:21.517Z,982.02
2023-01-15T02:42:21.505Z,982.00
2023-01-15T02:43:21.491Z,981.97
2023-01-15T02:44:21.484Z,981.96
2023-01-15T02:45:21.470Z,981.98
2023-01-15T02:46:21.455Z,982.05
2023-01-15T02:47:21.448Z,982.03
2023-01-15T02:48:21.427Z,981.97
2023-01-15T02:49:21.423Z,982.01
2023-01-15T02:50:21.401Z,982.06
2023-01-15T02:51:21.390Z,981.99
2023-01-15T02:52:21.377Z,982.05
2023-01-15T02:53:21.365Z,982.09
2023-01-15T02:54:21.349Z,982.08
2023-01-15T02:55:21.351Z,982.08
2023-01-15T02:56:21.328Z,982.05
2023-01-15T02:57:21.310Z,982.07
2023-01-15T02:58:21.312Z,982.01
2023-01-15T02:59:21.295Z,982.03
2023-01-15T03:00:21.272Z,982.00
2023-01-15T03:01:21.333Z,982.00
2023-01-15T03:02:21.300Z,982.05
2023-01-15T03:03:21.236Z,982.02
2023-01-15T03:04:21.224Z,981.97
2023-01-15T03:05:21.211Z,981.98
2023-01-15T03:06:21.196Z,982.03
2023-01-15T03:07:21.186Z,981.98
2023-01-15T03:08:21.171Z,981.95
2023-01-15T03:09:21.160Z,981.99
2023-01-15T03:10:21.146Z,982.08
2023-01-15T03:11:21.146Z,982.06
2023-01-15T03:12:21.120Z,982.03
2023-01-15T03:13:21.116Z,982.02
2023-01-15T03:14:21.094Z,982.03
2023-01-15T03:15:21.084Z,982.04
2023-01-15T03:16:21.090Z,982.12
2023-01-15T03:17:21.057Z,982.18
2023-01-15T03:18:21.059Z,982.25
2023-01-15T03:19:21.033Z,982.16
2023-01-15T03:20:21.018Z,982.19
2023-01-15T03:21:21.016Z,982.11
2023-01-15T03:22:21.000Z,982.06
2023-01-15T03:23:20.983Z,982.05
2023-01-15T03:24:20.968Z,981.99
2023-01-15T03:25:20.965Z,982.06
2023-01-15T03:26:20.948Z,982.04
2023-01-15T03:27:20.928Z,982.12
2023-01-15T03:28:20.917Z,982.25
2023-01-15T03:29:20.908Z,982.27
2023-01-15T03:30:20.914Z,982.27
2023-01-15T03:31:20.887Z,982.31
2023-01-15T03:32:20.873Z,982.27
2023-01-15T03:33:20.856Z,982.19
2023-01-15T03:34:20.838Z,982.16
2023-01-15T03:35:20.847Z,982.03
2023-01-15T03:36:20.829Z,982.20
2023-01-15T03:37:20.818Z,982.21
2023-01-15T03:38:20.790Z,982.30
2023-01-15T03:39:20.798Z,982.26
2023-01-15T03:40:20.781Z,982.33
2023-01-15T03:41:20.762Z,982.30
2023-01-15T03:42:20.761Z,982.25
2023-01-15T03:43:20.727Z,982.27
2023-01-15T03:44:20.728Z,982.23
2023-01-15T03:45:20.709Z,982.22
2023-01-15T03:46:20.749Z,982.19
2023-01-15T03:47:20.685Z,982.20
2023-01-15T03:48:20.701Z,982.30
2023-01-15T03:49:20.652Z,982.24
2023-01-15T03:50:20.637Z,982.25
2023-01-15T03:51:20.626Z,982.28
2023-01-15T03:52:20.612Z,982.28
2023-01-15T03:53:20.615Z,982.38
2023-01-15T03:54:20.658Z,982.38
2023-01-15T03:55:20.592Z,982.40
2023-01-15T03:56:20.568Z,982.32
2023-01-15T03:57:20.556Z,982.32
2023-01-15T03:58:20.536Z,982.37
2023-01-15T03:59:20.526Z,982.35
2023-01-15T04:00:20.511Z,982.30
2023-01-15T04:01:20.651Z,982.29
2023-01-15T04:02:20.522Z,982.27
2023-01-15T04:03:20.476Z,982.35
2023-01-15T04:04:20.714Z,982.29
2023-01-15T04:05:20.466Z,982.26
2023-01-15T04:06:20.435Z,982.32
2023-01-15T04:07:20.422Z,982.32
2023-01-15T04:08:20.425Z,982.27
2023-01-15T04:09:20.398Z,982.35
2023-01-15T04:10:20.386Z,982.35
2023-01-15T04:11:20.372Z,982.33
2023-01-15T04:12:20.357Z,982.38
2023-01-15T04:13:20.347Z,982.38
2023-01-15T04:14:20.333Z,982.37
2023-01-15T04:15:20.324Z,982.42
2023-01-15T04:16:20.308Z,982.40
2023-01-15T04:17:20.298Z,982.42
2023-01-15T04:18:20.283Z,982.32
2023-01-15T04:19:20.271Z,982.37
2023-01-15T04:20:20.262Z,982.34
2023-01-15T04:21:20.245Z,982.40
2023-01-15T04:22:20.234Z,982.40
2023-01-15T04:23:20.220Z,982.40
2023-01-15T04:24:20.214Z,982.35
2023-01-15T04:25:20.198Z,982.38
2023-01-15T04:26:20.186Z,982.40
2023-01-15T04:27:20.174Z,982.47
2023-01-15T04:28:20.165Z,982.44
2023-01-15T04:29:20.145Z,982.52
2023-01-15T04:30:20.130Z,982.52
2023-01-15T04:31:20.182Z,982.51
2023-01-15T04:32:20.105Z,982.49
2023-01-15T04:33:20.110Z,982.54
2023-01-15T04:34:20.075Z,982.50
2023-01-15T04:35:20.065Z,982.54
2023-01-15T04:36:20.059Z,982.55
2023-01-15T04:37:20.037Z,982.63
2023-01-15T04:38:20.023Z,982.65
2023-01-15T04:39:20.015Z,982.60
2023-01-15T04:40:20.003Z,982.55
2023-01-15T04:41:19.986Z,982.59
2023-01-15T04:42:19.973Z,982.51
2023-01-15T04:43:19.969Z,982.58
2023-01-15T04:44:19.949Z,982.54
2023-01-15T04:45:19.936Z,982.52
2023-01-15T04:46:20.024Z,982.50
2023-01-15T04:47:19.910Z,982.55
2023-01-15T04:48:19.895Z,982.46
2023-01-15T04:49:19.887Z,982.59
2023-01-15T04:50:19.883Z,982.62
2023-01-15T04:51:19.875Z,982.61
2023-01-15T04:52:19.848Z,982.64
2023-01-15T04:53:19.846Z,982.67
2023-01-15T04:54:19.815Z,982.62
2023-01-15T04:55:19.820Z,982.69
2023-01-15T04:56:19.792Z,982.63
2023-01-15T04:57:19.792Z,982.64
2023-01-15T04:58:19.763Z,982.58
2023-01-15T04:59:19.753Z,982.58
2023-01-15T05:00:19.745Z,982.62
2023-01-15T05:01:19.867Z,982.61
2023-01-15T05:02:19.808Z,982.62
2023-01-15T05:03:19.703Z,982.62
2023-01-15T05:04:19.719Z,982.72
2023-01-15T05:05:19.673Z,982.67
2023-01-15T05:06:19.661Z,982.76
2023-01-15T05:07:19.648Z,982.72
2023-01-15T05:08:19.633Z,982.73
2023-01-15T05:09:19.622Z,982.67
2023-01-15T05:10:19.608Z,982.70
2023-01-15T05:11:19.597Z,982.70
2023-01-15T05:12:19.580Z,982.68
2023-01-15T05:13:19.572Z,982.66
2023-01-15T05:14:19.562Z,982.62
2023-01-15T05:15:19.553Z,982.69
2023-01-15T05:16:19.536Z,982.75
2023-01-15T05:17:19.525Z,982.83
2023-01-15T05:18:19.507Z,982.90
2023-01-15T05:19:19.491Z,982.84
2023-01-15T05:20:19.480Z,982.83
2023-01-15T05:21:19.462Z,982.76
2023-01-15T05:22:19.459Z,982.76
2023-01-15T05:23:19.441Z,982.88
2023-01-15T05:24:19.425Z,982.91
2023-01-15T05:25:19.412Z,982.92
2023-01-15T05:26:19.401Z,982.89
2023-01-15T05:27:19.384Z,982.99
2023-01-15T05:28:19.372Z,982.91
2023-01-15T05:29:19.360Z,982.93
2023-01-15T05:30:19.345Z,982.81
2023-01-15T05:31:19.371Z,982.87
2023-01-15T05:32:19.320Z,982.85
2023-01-15T05:33:19.304Z,982.84
2023-01-15T05:34:19.303Z,982.89
2023-01-15T05:35:19.282Z,982.86
2023-01-15T05:36:19.266Z,982.85
2023-01-15T05:37:19.254Z,982.84
2023-01-15T05:38:19.239Z,982.87
2023-01-15T05:39:19.231Z,982.90
2023-01-15T05:40:19.213Z,982.87
2023-01-15T05:41:19.201Z,982.87
2023-01-15T05:42:19.185Z,982.81
2023-01-15T05:43:19.171Z,982.79
2023-01-15T05:45:19.145Z,982.84
2023-01-15T05:46:19.130Z,982.82
2023-01-15T05:47:19.131Z,982.84
2023-01-15T05:48:19.107Z,982.80
2023-01-15T05:49:19.092Z,982.82
2023-01-15T05:50:19.083Z,982.85
2023-01-15T05:51:19.069Z,982.85
2023-01-15T05:52:19.054Z,982.87
2023-01-15T05:53:19.037Z,982.83
2023-01-15T05:54:19.033Z,982.84
2023-01-15T05:55:19.012Z,982.87
2023-01-15T05:56:19.014Z,982.83
2023-01-15T05:57:19.010Z,982.82
2023-01-15T05:58:18.994Z,982.90
2023-01-15T05:59:18.962Z,982.90
2023-01-15T06:00:18.961Z,982.92
2023-01-15T06:01:18.999Z,982.96
2023-01-15T06:02:18.951Z,982.96
2023-01-15T06:03:18.946Z,983.02
2023-01-15T06:04:18.896Z,983.06
2023-01-15T06:05:18.879Z,983.03
2023-01-15T06:06:18.867Z,983.09
2023-01-15T06:07:18.854Z,983.09
2023-01-15T06:08:18.841Z,983.08
2023-01-15T06:09:18.839Z,983.08
2023-01-15T06:10:18.814Z,983.02
2023-01-15T06:11:18.801Z,983.04
2023-01-15T06:12:18.800Z,983.09
2023-01-15T06:13:18.774Z,983.02
2023-01-15T06:14:18.780Z,982.94
2023-01-15T06:15:18.760Z,982.92
2023-01-15T06:16:18.809Z,982.94
2023-01-15T06:17:18.723Z,982.94
2023-01-15T06:18:18.718Z,982.98
2023-01-15T06:19:18.699Z,982.89
2023-01-15T06:20:18.684Z,982.91
2023-01-15T06:21:18.670Z,982.88
2023-01-15T06:22:18.662Z,982.93
2023-01-15T06:23:18.645Z,982.93
2023-01-15T06:24:18.647Z,982.92
2023-01-15T06:25:18.628Z,982.96
2023-01-15T06:26:18.613Z,982.93
2023-01-15T06:27:18.600Z,983.01
2023-01-15T06:28:18.589Z,982.94
2023-01-15T06:29:18.678Z,983.00
2023-01-15T06:30:18.556Z,982.99
2023-01-15T06:31:18.612Z,982.97
2023-01-15T06:32:18.528Z,983.06
2023-01-15T06:33:18.510Z,983.08
2023-01-15T06:34:18.505Z,983.05
2023-01-15T06:35:18.489Z,983.13
2023-01-15T06:36:18.476Z,983.12
2023-01-15T06:37:18.461Z,983.18
2023-01-15T06:38:18.451Z,983.16
2023-01-15T06:39:18.437Z,983.20
2023-01-15T06:40:18.479Z,983.12
2023-01-15T06:41:18.409Z,983.16
2023-01-15T06:42:18.401Z,983.13
2023-01-15T06:43:18.382Z,983.14
2023-01-15T06:44:18.372Z,983.21
2023-01-15T06:45:18.359Z,983.21
2023-01-15T06:46:18.392Z,983.19
2023-01-15T06:47:18.335Z,983.24
2023-01-15T06:48:18.320Z,983.25
2023-01-15T06:49:18.307Z,983.25
2023-01-15T06:50:18.295Z,983.16
2023-01-15T06:51:18.283Z,983.11
2023-01-15T06:52:18.271Z,983.07
2023-01-15T06:53:18.255Z,983.08
2023-01-15T06:54:18.243Z,983.03
2023-01-15T06:55:18.226Z,983.05
2023-01-15T06:56:18.217Z,983.07
2023-01-15T06:57:18.200Z,983.03
2023-01-15T06:58:18.187Z,982.94
2023-01-15T06:59:18.173Z,982.95
2023-01-15T07:00:18.166Z,982.97
2023-01-15T07:01:18.318Z,983.04
2023-01-15T07:02:18.455Z,983.10
2023-01-15T07:03:18.126Z,983.10
2023-01-15T07:04:18.112Z,983.09
2023-01-15T07:05:18.094Z,983.10
2023-01-15T07:06:18.082Z,983.12
2023-01-15T07:07:18.069Z,983.14
2023-01-15T07:08:18.055Z,983.16
2023-01-15T07:09:18.045Z,983.14
2023-01-15T07:10:18.032Z,983.11
2023-01-15T07:11:18.014Z,983.25
2023-01-15T07:12:18.004Z,983.24
2023-01-15T07:13:17.989Z,983.28
2023-01-15T07:14:17.976Z,983.31
2023-01-15T07:15:17.962Z,983.29
2023-01-15T07:16:18.018Z,983.29
2023-01-15T07:17:17.939Z,983.28
2023-01-15T07:18:17.924Z,983.29
2023-01-15T07:19:17.908Z,983.27
2023-01-15T07:20:17.899Z,983.31
2023-01-15T07:21:17.882Z,983.26
2023-01-15T07:22:17.870Z,983.21
2023-01-15T07:23:17.856Z,983.26
2023-01-15T07:24:17.860Z,983.31
2023-01-15T07:25:17.828Z,983.34
2023-01-15T07:26:17.819Z,983.27
2023-01-15T07:27:17.809Z,983.34
2023-01-15T07:28:17.790Z,983.39
2023-01-15T07:29:17.776Z,983.35
2023-01-15T07:30:17.765Z,983.33
2023-01-15T07:31:17.798Z,983.33
2023-01-15T07:32:17.736Z,983.38
2023-01-15T07:33:17.727Z,983.38
2023-01-15T07:34:17.710Z,983.38
2023-01-15T07:35:17.697Z,983.36
2023-01-15T07:36:17.690Z,983.39
2023-01-15T07:37:17.670Z,983.42
2023-01-15T07:38:17.658Z,983.32
2023-01-15T07:39:17.661Z,983.34
2023-01-15T07:40:17.647Z,983.35
2023-01-15T07:41:17.627Z,983.33
2023-01-15T07:42:17.607Z,983.33
2023-01-15T07:43:17.590Z,983.38
2023-01-15T07:44:17.576Z,983.39
2023-01-15T07:45:17.563Z,983.34
2023-01-15T07:46:17.551Z,983.35
2023-01-15T07:47:17.536Z,983.37
2023-01-15T07:48:17.526Z,983.41
2023-01-15T07:49:17.511Z,983.43
2023-01-15T07:50:17.497Z,983.48
2023-01-15T07:51:17.481Z,983.45
2023-01-15T07:52:17.474Z,983.45
2023-01-15T07:53:17.461Z,983.40
2023-01-15T07:54:17.443Z,983.48
2023-01-15T07:55:17.434Z,983.52
2023-01-15T07:56:17.420Z,983.52
2023-01-15T07:57:17.411Z,983.51
2023-01-15T07:58:17.390Z,983.50
2023-01-15T07:59:17.404Z,983.45
2023-01-15T08:00:17.369Z,983.50
2023-01-15T08:01:17.441Z,983.54
2023-01-15T08:02:17.342Z,983.54
2023-01-15T08:03:17.324Z,983.56
2023-01-15T08:04:17.370Z,983.60
2023-01-15T08:05:17.304Z,983.62
2023-01-15T08:06:17.292Z,983.61
2023-01-15T08:07:17.271Z,983.60
2023-01-15T08:08:17.260Z,983.60
2023-01-15T08:09:17.249Z,983.64
2023-01-15T08:10:17.262Z,983.64
2023-01-15T08:11:17.218Z,983.63
2023-01-15T08:12:17.215Z,983.64
2023-01-15T08:13:17.192Z,983.55
2023-01-15T08:14:17.179Z,983.63
2023-01-15T08:15:17.165Z,983.66
2023-01-15T08:16:17.182Z,983.72
2023-01-15T08:17:17.289Z,983.66
2023-01-15T08:18:17.134Z,983.65
2023-01-15T08:19:17.115Z,983.63
2023-01-15T08:20:17.105Z,983.65
2023-01-15T08:21:17.101Z,983.71
2023-01-15T08:22:17.075Z,983.73
2023-01-15T08:23:17.068Z,983.76
2023-01-15T08:24:17.051Z,983.84
2023-01-15T08:25:17.037Z,983.82
2023-01-15T08:26:17.032Z,983.88
2023-01-15T08:27:17.015Z,983.80
2023-01-15T08:28:17.001Z,983.79
2023-01-15T08:29:16.987Z,983.79
2023-01-15T08:30:16.977Z,983.80
2023-01-15T08:31:17.069Z,983.88
2023-01-15T08:32:16.948Z,983.84
2023-01-15T08:33:16.935Z,983.86
2023-01-15T08:34:16.926Z,983.85
2023-01-15T08:35:16.908Z,983.80
2023-01-15T08:36:16.899Z,983.87
2023-01-15T08:37:16.882Z,983.93
2023-01-15T08:38:16.880Z,983.96
2023-01-15T08:39:16.869Z,983.94
2023-01-15T08:40:16.850Z,983.91
2023-01-15T08:41:16.842Z,983.94
2023-01-15T08:42:16.821Z,984.02
2023-01-15T08:43:16.816Z,983.99
2023-01-15T08:44:16.795Z,983.95
2023-01-15T08:45:16.779Z,983.95
2023-01-15T08:46:16.771Z,984.00
2023-01-15T08:47:16.755Z,984.01
2023-01-15T08:48:16.747Z,984.01
2023-01-15T08:49:16.738Z,983.92
2023-01-15T08:50:16.722Z,984.03
2023-01-15T08:51:16.706Z,983.96
2023-01-15T08:52:16.696Z,983.91
2023-01-15T08:53:16.679Z,983.91
2023-01-15T08:54:16.669Z,983.99
2023-01-15T08:55:16.657Z,984.08
2023-01-15T08:56:16.660Z,984.03
2023-01-15T08:57:16.630Z,983.93
2023-01-15T08:58:16.617Z,983.89
2023-01-15T08:59:16.603Z,984.00
2023-01-15T09:00:17.651Z,983.96
2023-01-15T09:01:16.694Z,983.97
2023-01-15T09:02:16.567Z,983.90
2023-01-15T09:03:16.558Z,984.02
2023-01-15T09:04:16.552Z,983.92
2023-01-15T09:05:16.531Z,983.85
2023-01-15T09:06:16.528Z,983.86
2023-01-15T09:07:16.560Z,983.81
2023-01-15T09:08:16.493Z,983.88
2023-01-15T09:09:16.485Z,983.83
2023-01-15T09:10:16.466Z,983.84
2023-01-15T09:11:16.451Z,983.82
2023-01-15T09:12:16.447Z,983.79
2023-01-15T09:13:16.425Z,983.83
2023-01-15T09:15:00.270Z,983.74
2023-01-15T09:15:16.399Z,983.73
2023-01-15T09:16:16.410Z,983.75
2023-01-15T09:17:16.383Z,983.77
2023-01-15T09:18:16.365Z,983.70
2023-01-15T09:19:16.348Z,983.68
2023-01-15T09:20:16.341Z,983.63
2023-01-15T09:21:16.335Z,983.42
2023-01-15T09:22:16.327Z,983.66
2023-01-15T09:23:16.300Z,983.55
2023-01-15T09:24:16.286Z,983.49
2023-01-15T09:25:16.272Z,983.56
2023-01-15T09:26:16.261Z,983.54
2023-01-15T09:27:16.283Z,983.61
2023-01-15T09:28:16.236Z,983.60
2023-01-15T09:29:16.222Z,983.67
2023-01-15T09:30:16.213Z,983.65
2023-01-15T09:31:16.221Z,983.77
2023-01-15T09:32:16.186Z,983.91
2023-01-15T09:33:16.173Z,983.81
2023-01-15T09:34:16.162Z,983.87
2023-01-15T09:35:16.157Z,983.88
2023-01-15T09:36:16.132Z,983.79
2023-01-15T09:37:16.120Z,983.91
2023-01-15T09:38:16.111Z,983.90
2023-01-15T09:39:16.099Z,983.93
2023-01-15T09:40:16.083Z,984.02
2023-01-15T09:41:16.071Z,983.98
2023-01-15T09:42:16.222Z,984.07
2023-01-15T09:43:16.045Z,984.13
2023-01-15T09:44:16.031Z,984.03
2023-01-15T09:45:16.028Z,984.11
2023-01-15T09:46:16.089Z,984.14
2023-01-15T09:47:15.995Z,984.17
2023-01-15T09:48:18.140Z,984.02
2023-01-15T09:49:15.979Z,984.11
2023-01-15T09:50:15.965Z,984.20
2023-01-15T09:51:15.944Z,984.15
2023-01-15T09:52:15.937Z,984.17
2023-01-15T09:53:15.918Z,984.24
2023-01-15T09:54:17.427Z,984.14
2023-01-15T09:55:15.891Z,984.15
2023-01-15T09:56:15.876Z,984.05
2023-01-15T09:57:15.871Z,984.03
2023-01-15T09:58:15.856Z,984.01
2023-01-15T09:59:15.844Z,984.08
2023-01-15T10:00:15.843Z,983.93
2023-01-15T10:01:15.835Z,984.04
2023-01-15T10:02:15.836Z,984.16
2023-01-15T10:03:15.868Z,984.11
2023-01-15T10:04:15.858Z,984.26
2023-01-15T10:05:15.771Z,984.14
2023-01-15T10:06:15.773Z,984.06
2023-01-15T10:07:15.742Z,984.23
2023-01-15T10:08:15.722Z,984.26
2023-01-15T10:09:15.716Z,984.32
2023-01-15T10:10:18.063Z,984.17
2023-01-15T10:11:15.693Z,984.31
2023-01-15T10:12:15.672Z,984.26
2023-01-15T10:13:15.667Z,984.34
2023-01-15T10:14:15.645Z,984.33
2023-01-15T10:15:15.645Z,984.34
2023-01-15T10:16:15.672Z,984.41
2023-01-15T10:17:15.610Z,984.36
2023-01-15T10:18:15.593Z,984.29
2023-01-15T10:19:15.585Z,984.39
2023-01-15T10:20:15.570Z,984.41
2023-01-15T10:21:15.571Z,984.24
2023-01-15T10:22:15.540Z,984.34
2023-01-15T10:23:15.552Z,984.31
2023-01-15T10:24:15.534Z,984.26
2023-01-15T10:25:15.512Z,984.30
2023-01-15T10:26:15.491Z,984.10
2023-01-15T10:27:15.485Z,984.21
2023-01-15T10:28:17.954Z,984.09
2023-01-15T10:29:15.456Z,984.17
2023-01-15T10:30:15.443Z,984.14
2023-01-15T10:31:15.466Z,984.21
2023-01-15T10:32:15.416Z,984.26
2023-01-15T10:33:15.411Z,984.27
2023-01-15T10:34:15.389Z,984.32
2023-01-15T10:35:15.386Z,984.29
2023-01-15T10:36:15.364Z,984.27
2023-01-15T10:37:15.357Z,984.28
2023-01-15T10:38:15.367Z,984.39
2023-01-15T10:39:15.328Z,984.48
2023-01-15T10:40:15.319Z,984.50
2023-01-15T10:41:15.305Z,984.48
2023-01-15T10:42:15.287Z,984.52
2023-01-15T10:43:15.299Z,984.49
2023-01-15T10:44:15.261Z,984.53
2023-01-15T10:45:15.253Z,984.55
2023-01-15T10:46:15.301Z,984.51
2023-01-15T10:47:15.224Z,984.49
2023-01-15T10:48:15.213Z,984.42
2023-01-15T10:49:15.196Z,984.35
2023-01-15T10:50:15.188Z,984.47
2023-01-15T10:51:15.171Z,984.29
2023-01-15T10:52:15.157Z,984.29
2023-01-15T10:53:15.149Z,984.40
2023-01-15T10:54:15.140Z,984.36
2023-01-15T10:55:15.135Z,984.36
2023-01-15T10:56:15.109Z,984.31
2023-01-15T10:57:15.096Z,984.30
2023-01-15T10:58:15.080Z,984.21
2023-01-15T10:59:15.071Z,984.24
2023-01-15T11:00:15.057Z,984.17
2023-01-15T11:01:15.137Z,984.16
2023-01-15T11:02:15.206Z,984.27
2023-01-15T11:03:15.376Z,984.21
2023-01-15T11:04:15.016Z,984.27
2023-01-15T11:05:14.997Z,984.34
2023-01-15T11:06:14.973Z,984.50
2023-01-15T11:07:14.962Z,984.46
2023-01-15T11:08:58.430Z,984.39
2023-01-15T11:09:14.935Z,984.46
2023-01-15T11:10:14.922Z,984.46
2023-01-15T11:11:14.910Z,984.48
2023-01-15T11:12:14.893Z,984.52
2023-01-15T11:13:14.884Z,984.47
2023-01-15T11:14:14.878Z,984.49
2023-01-15T11:15:14.858Z,984.47
2023-01-15T11:16:14.870Z,984.40
2023-01-15T11:17:14.833Z,984.47
2023-01-15T11:18:14.820Z,984.48
2023-01-15T11:19:14.814Z,984.38
2023-01-15T11:20:14.799Z,984.45
2023-01-15T11:21:14.784Z,984.53
2023-01-15T11:22:14.807Z,984.55
2023-01-15T11:23:14.759Z,984.54
2023-01-15T11:24:14.746Z,984.56
2023-01-15T11:25:14.733Z,984.44
2023-01-15T11:26:14.728Z,984.60
2023-01-15T11:27:14.708Z,984.45
2023-01-15T11:28:14.694Z,984.35
2023-01-15T11:29:14.683Z,984.42
2023-01-15T11:30:14.676Z,984.35
2023-01-15T11:31:14.764Z,984.58
2023-01-15T11:32:14.644Z,984.52
2023-01-15T11:33:14.642Z,984.59
2023-01-15T11:34:14.618Z,984.57
2023-01-15T11:35:14.641Z,984.59
2023-01-15T11:36:14.591Z,984.36
2023-01-15T11:37:14.579Z,984.54
2023-01-15T11:38:14.597Z,984.44
2023-01-15T11:39:14.556Z,984.47
2023-01-15T11:40:14.580Z,984.41
2023-01-15T11:41:14.531Z,984.40
2023-01-15T11:42:14.513Z,984.40
2023-01-15T11:43:14.501Z,984.30
2023-01-15T11:44:14.487Z,984.25
2023-01-15T11:45:14.481Z,984.19
2023-01-15T11:46:14.551Z,984.07
2023-01-15T11:47:14.460Z,984.03
2023-01-15T11:48:14.468Z,983.85
2023-01-15T11:49:14.424Z,983.92
2023-01-15T11:50:14.492Z,983.85
2023-01-15T11:51:14.400Z,983.77
2023-01-15T11:52:14.392Z,983.50
2023-01-15T11:53:14.374Z,983.79
2023-01-15T11:54:14.382Z,983.86
2023-01-15T11:55:14.368Z,983.81
2023-01-15T11:56:14.338Z,983.77
2023-01-15T11:57:14.324Z,983.71
2023-01-15T11:58:14.323Z,983.66
2023-01-15T11:59:14.301Z,983.65
2023-01-15T12:00:14.305Z,983.63
2023-01-15T12:01:14.303Z,983.61
2023-01-15T12:02:14.263Z,983.64
2023-01-15T12:03:14.251Z,983.67
2023-01-15T12:04:14.389Z,983.37
2023-01-15T12:05:14.231Z,983.62
2023-01-15T12:06:14.214Z,983.67
2023-01-15T12:07:14.307Z,983.58
2023-01-15T12:08:14.202Z,983.68
2023-01-15T12:09:14.178Z,983.68
2023-01-15T12:10:14.226Z,983.79
2023-01-15T12:11:25.935Z,983.69
2023-01-15T12:12:16.142Z,983.68
2023-01-15T12:13:14.131Z,983.72
2023-01-15T12:14:14.117Z,983.72
2023-01-15T12:15:14.104Z,983.54
2023-01-15T12:16:14.219Z,983.68
2023-01-15T12:17:14.086Z,983.58
2023-01-15T12:18:14.069Z,983.70
2023-01-15T12:19:14.075Z,983.67
2023-01-15T12:20:14.043Z,983.60
2023-01-15T12:21:14.034Z,983.58
2023-01-15T12:22:14.028Z,983.47
2023-01-15T12:23:14.006Z,983.58
2023-01-15T12:24:13.995Z,983.62
2023-01-15T12:25:13.982Z,983.37
2023-01-15T12:26:13.968Z,983.68
2023-01-15T12:27:13.966Z,983.67
2023-01-15T12:28:13.945Z,983.68
2023-01-15T12:29:13.940Z,983.34